createdAt,value
2019-04-05T18:12:08.797Z,34.20
2019-04-05T18:14:41.229Z,33.05
2019-04-05T18:17:12.818Z,38.40
2019-04-05T18:19:44.454Z,36.68
2019-04-05T18:22:16.007Z,29.72
2019-04-05T18:24:47.531Z,23.50
2019-04-05T18:27:19.176Z,22.22
2019-04-05T18:29:50.918Z,21.75
2019-04-05T18:32:22.588Z,21.75
2019-04-05T18:34:54.360Z,25.37
2019-04-05T18:37:26.092Z,27.00
2019-04-05T18:39:57.722Z,24.37
2019-04-05T18:42:29.416Z,26.07
2019-04-05T18:45:00.903Z,24.72
2019-04-05T18:47:34.718Z,24.95
2019-04-05T18:50:07.555Z,22.42
2019-04-05T18:52:39.414Z,22.15
2019-04-05T18:55:10.942Z,22.02
2019-04-05T18:57:42.608Z,23.85
2019-04-05T19:00:14.155Z,28.15
2019-04-05T19:02:45.861Z,30.43
2019-04-05T19:05:17.644Z,30.82
2019-04-05T19:07:50.164Z,29.57
2019-04-05T19:10:21.620Z,29.32
2019-04-05T19:12:53.403Z,30.92
2019-04-05T19:15:25.133Z,30.30
2019-04-05T19:17:56.807Z,30.40
2019-04-05T19:20:28.406Z,31.05
2019-04-05T19:22:59.881Z,27.75
2019-04-05T19:25:31.528Z,25.32
2019-04-05T19:28:03.018Z,25.97
2019-04-05T19:48:30.626Z,17.65
2019-04-05T19:51:48.541Z,19.00
2019-04-05T19:54:27.664Z,18.55
2019-04-05T19:56:59.489Z,19.73
2019-04-05T19:59:31.587Z,19.98
2019-04-05T20:02:03.500Z,18.98
2019-04-05T20:04:35.433Z,18.48
2019-04-05T20:07:07.412Z,19.20
2019-04-05T20:09:39.525Z,21.73
2019-04-05T20:12:12.895Z,20.62
2019-04-05T20:14:44.901Z,20.23
2019-04-05T20:17:16.854Z,20.12
2019-04-05T20:19:48.658Z,21.15
2019-04-05T20:22:20.347Z,21.40
2019-04-05T20:24:52.163Z,19.48
2019-04-05T20:27:24.064Z,20.95
2019-04-05T20:29:55.830Z,20.10
2019-04-05T20:32:27.731Z,20.97
2019-04-05T20:35:00.930Z,19.90
2019-04-05T20:37:32.553Z,20.60
2019-04-05T20:40:08.678Z,20.12
2019-04-05T20:42:40.269Z,18.80
2019-04-05T20:45:12.909Z,19.75
2019-04-05T20:47:44.451Z,19.25
2019-04-05T20:50:16.074Z,18.55
2019-04-05T20:52:47.793Z,19.77
2019-04-05T20:55:19.508Z,18.95
2019-04-05T20:57:50.936Z,18.77
2019-04-05T21:00:22.415Z,18.67
2019-04-05T21:02:53.933Z,22.27
2019-04-05T21:05:25.880Z,19.95
2019-04-05T21:07:57.383Z,23.47
2019-04-05T21:10:29.158Z,22.05
2019-04-05T21:13:00.860Z,22.60
2019-04-05T21:15:32.842Z,22.77
2019-04-05T21:18:04.376Z,22.22
2019-04-05T21:20:36.066Z,22.73
2019-04-05T21:23:07.823Z,21.90
2019-04-05T21:25:39.327Z,22.90
2019-04-05T21:28:10.929Z,21.82
2019-04-05T21:30:42.521Z,22.30
2019-04-05T21:33:14.107Z,22.15
2019-04-05T21:35:46.275Z,22.60
2019-04-05T21:38:18.404Z,20.23
2019-04-05T21:40:49.958Z,20.50
2019-04-05T21:43:21.556Z,19.90
2019-04-05T21:45:53.324Z,20.35
2019-04-05T21:48:24.966Z,20.35
2019-04-05T21:50:56.592Z,21.50
2019-04-05T21:53:28.124Z,23.35
2019-04-05T21:55:59.708Z,22.62
2019-04-05T21:58:31.519Z,20.05
2019-04-05T22:01:07.337Z,20.43
2019-04-05T22:03:40.870Z,21.77
2019-04-05T22:06:12.594Z,20.62
2019-04-05T22:08:44.191Z,21.25
2019-04-05T22:11:15.673Z,21.52
2019-04-05T22:13:47.388Z,22.75
2019-04-05T22:16:19.074Z,22.67
2019-04-05T22:18:50.639Z,23.87
2019-04-05T22:21:22.295Z,23.87
2019-04-05T22:23:53.897Z,23.02
2019-04-05T22:26:25.434Z,23.05
2019-04-05T22:28:56.991Z,24.98
2019-04-05T22:31:29.547Z,24.87
2019-04-05T22:34:01.250Z,22.93
2019-04-05T22:36:32.726Z,23.73
2019-04-05T22:39:05.522Z,25.00
2019-04-05T22:41:37.976Z,25.02
2019-04-05T22:44:09.796Z,23.92
2019-04-05T22:46:41.449Z,22.90
2019-04-05T22:49:14.259Z,24.45
2019-04-05T22:51:46.070Z,24.40
2019-04-05T22:54:17.583Z,23.83
2019-04-05T22:56:49.252Z,25.17
2019-04-05T22:59:20.907Z,25.25
2019-04-05T23:01:52.568Z,25.30
2019-04-05T23:04:24.181Z,24.45
2019-04-05T23:06:55.906Z,25.75
2019-04-05T23:09:27.480Z,24.27
2019-04-05T23:11:59.167Z,24.52
2019-04-05T23:14:30.689Z,25.90
2019-04-05T23:17:02.568Z,24.77
2019-04-05T23:19:35.268Z,25.97
2019-04-05T23:22:06.843Z,24.70
2019-04-05T23:24:38.513Z,25.32
2019-04-05T23:27:10.220Z,24.77
2019-04-05T23:29:41.833Z,26.95
2019-04-05T23:32:13.632Z,25.82
2019-04-05T23:34:45.238Z,24.15
2019-04-05T23:37:17.027Z,24.95
2019-04-05T23:39:48.714Z,24.37
2019-04-05T23:42:20.305Z,27.35
2019-04-05T23:44:51.819Z,24.65
2019-04-05T23:47:24.694Z,24.23
2019-04-05T23:49:56.790Z,25.00
2019-04-05T23:52:28.369Z,24.00
2019-04-05T23:55:33.415Z,24.07
2019-04-05T23:58:02.161Z,24.00
